JST885 YHBA-YMML
Flight info
| Callsign | JST885 |
|---|---|
| Flight time | 2h 20m |
| Altitude | 36000 |
| Route | HAAVI T55 ITIDE DCT MUDDL Q35 DORSU H119 ARBEY |
| Aircraft | A320/M-SDE3FGHIRWY/LB1 |
Departure
| Time | 2026-04-24 23:55 |
|---|---|
| Airport | Hervey Bay Airport (YHBA) |
Arrival
| Time | 2026-04-25 02:15 |
|---|---|
| Airport | Melbourne Airport (YMML) |
| Time | Latitude | Longitude | Altitude | Speed | Heading |
|---|---|---|---|---|---|
| 2026-04-24 23:39 | -25.32004 | 152.88430 | 61 ft | 0 kts | 86° |
| 2026-04-24 23:51 | -25.32008 | 152.88440 | 54 ft | 3 kts | 121° |
| 2026-04-24 23:51 | -25.32038 | 152.88431 | 59 ft | 5 kts | 188° |
| 2026-04-24 23:51 | -25.32074 | 152.88469 | 61 ft | 10 kts | 134° |
| 2026-04-24 23:51 | -25.32145 | 152.88445 | 57 ft | 12 kts | 208° |
| 2026-04-24 23:52 | -25.32158 | 152.88365 | 59 ft | 15 kts | 297° |
| 2026-04-24 23:52 | -25.32093 | 152.88231 | 55 ft | 24 kts | 298° |
| 2026-04-24 23:52 | -25.32007 | 152.88060 | 58 ft | 26 kts | 299° |
| 2026-04-24 23:52 | -25.31914 | 152.87878 | 61 ft | 28 kts | 299° |
| 2026-04-24 23:53 | -25.31817 | 152.87685 | 58 ft | 30 kts | 297° |
| 2026-04-24 23:53 | -25.31716 | 152.87476 | 55 ft | 31 kts | 299° |
| 2026-04-24 23:53 | -25.31621 | 152.87287 | 57 ft | 24 kts | 297° |
| 2026-04-24 23:53 | -25.31585 | 152.87181 | 59 ft | 11 kts | 268° |
| 2026-04-24 23:54 | -25.31562 | 152.87167 | 60 ft | 6 kts | 79° |
| 2026-04-24 23:54 | -25.31612 | 152.87269 | 59 ft | 43 kts | 119° |
| 2026-04-24 23:54 | -25.31879 | 152.87801 | 62 ft | 110 kts | 118° |
| 2026-04-24 23:54 | -25.32335 | 152.88702 | 159 ft | 149 kts | 121° |
| 2026-04-24 23:55 | -25.32811 | 152.89654 | 966 ft | 138 kts | 122° |
| 2026-04-24 23:55 | -25.33270 | 152.90581 | 1679 ft | 137 kts | 121° |
| 2026-04-24 23:55 | -25.33760 | 152.91496 | 2035 ft | 146 kts | 133° |
| 2026-04-24 23:55 | -25.34703 | 152.92079 | 2139 ft | 171 kts | 163° |
| 2026-04-24 23:56 | -25.35949 | 152.92393 | 2308 ft | 196 kts | 163° |
| 2026-04-24 23:56 | -25.37363 | 152.92763 | 2581 ft | 221 kts | 163° |
| 2026-04-24 23:56 | -25.38934 | 152.93185 | 3042 ft | 240 kts | 162° |
| 2026-04-24 23:56 | -25.40576 | 152.93633 | 3798 ft | 246 kts | 163° |
| 2026-04-24 23:57 | -25.42217 | 152.94193 | 4620 ft | 248 kts | 154° |
| 2026-04-24 23:57 | -25.43770 | 152.95037 | 5468 ft | 250 kts | 149° |
| 2026-04-24 23:57 | -25.45293 | 152.95999 | 6277 ft | 254 kts | 147° |
| 2026-04-24 23:57 | -25.46819 | 152.97002 | 7083 ft | 257 kts | 147° |
| 2026-04-24 23:58 | -25.48369 | 152.98015 | 7852 ft | 261 kts | 148° |
| 2026-04-24 23:58 | -25.49947 | 152.99026 | 8639 ft | 264 kts | 148° |
| 2026-04-24 23:58 | -25.51553 | 153.00037 | 9465 ft | 267 kts | 149° |
| 2026-04-24 23:58 | -25.53183 | 153.01050 | 10216 ft | 273 kts | 149° |
| 2026-04-24 23:59 | -25.54889 | 153.02107 | 10578 ft | 290 kts | 149° |
| 2026-04-24 23:59 | -25.56720 | 153.03238 | 10724 ft | 313 kts | 149° |
| 2026-04-24 23:59 | -25.58689 | 153.04450 | 10849 ft | 335 kts | 149° |
| 2026-04-24 23:59 | -25.60771 | 153.05734 | 11195 ft | 347 kts | 149° |
| 2026-04-25 00:00 | -25.62895 | 153.07044 | 11776 ft | 352 kts | 149° |
| 2026-04-25 00:00 | -25.65044 | 153.08370 | 12415 ft | 355 kts | 149° |
| 2026-04-25 00:00 | -25.67214 | 153.09710 | 13034 ft | 359 kts | 149° |
| 2026-04-25 00:00 | -25.69406 | 153.11066 | 13651 ft | 362 kts | 150° |
| 2026-04-25 00:01 | -25.71612 | 153.12428 | 14243 ft | 365 kts | 150° |
| 2026-04-25 00:01 | -25.73842 | 153.13801 | 14790 ft | 368 kts | 150° |
| 2026-04-25 00:01 | -25.76121 | 153.15128 | 15343 ft | 371 kts | 155° |
| 2026-04-25 00:01 | -25.78571 | 153.16074 | 15888 ft | 375 kts | 161° |
| 2026-04-25 00:02 | -25.81076 | 153.16933 | 16444 ft | 378 kts | 161° |
| 2026-04-25 00:02 | -25.83594 | 153.17799 | 17002 ft | 381 kts | 161° |
| 2026-04-25 00:02 | -25.85275 | 153.18377 | 17387 ft | 383 kts | 162° |
| 2026-04-25 00:02 | -25.87826 | 153.19253 | 17947 ft | 386 kts | 162° |
| 2026-04-25 00:03 | -25.90400 | 153.20139 | 18529 ft | 389 kts | 162° |
| 2026-04-25 00:03 | -25.92994 | 153.21033 | 19028 ft | 392 kts | 162° |
| 2026-04-25 00:03 | -25.95607 | 153.21933 | 19514 ft | 395 kts | 162° |
| 2026-04-25 00:03 | -25.98239 | 153.22840 | 20002 ft | 397 kts | 162° |
| 2026-04-25 00:04 | -26.00890 | 153.23753 | 20486 ft | 400 kts | 162° |
| 2026-04-25 00:04 | -26.03558 | 153.24674 | 20942 ft | 403 kts | 162° |
| 2026-04-25 00:04 | -26.06242 | 153.25602 | 21378 ft | 405 kts | 162° |
| 2026-04-25 00:04 | -26.09854 | 153.26855 | 21947 ft | 408 kts | 162° |
| 2026-04-25 00:05 | -26.11658 | 153.27480 | 22218 ft | 410 kts | 162° |
| 2026-04-25 00:05 | -26.14391 | 153.28427 | 22613 ft | 412 kts | 162° |
| 2026-04-25 00:05 | -26.17138 | 153.29376 | 22993 ft | 415 kts | 162° |
| 2026-04-25 00:05 | -26.19900 | 153.30330 | 23371 ft | 417 kts | 162° |
| 2026-04-25 00:06 | -26.22684 | 153.31295 | 23749 ft | 419 kts | 162° |
| 2026-04-25 00:06 | -26.25475 | 153.32263 | 24072 ft | 422 kts | 162° |
| 2026-04-25 00:06 | -26.28282 | 153.33234 | 24378 ft | 423 kts | 162° |
| 2026-04-25 00:06 | -26.31103 | 153.34210 | 24679 ft | 425 kts | 162° |
| 2026-04-25 00:07 | -26.33933 | 153.35192 | 24980 ft | 427 kts | 162° |
| 2026-04-25 00:07 | -26.36779 | 153.36181 | 25276 ft | 429 kts | 162° |
| 2026-04-25 00:07 | -26.39635 | 153.37174 | 25585 ft | 431 kts | 162° |
| 2026-04-25 00:07 | -26.42502 | 153.38173 | 25885 ft | 433 kts | 162° |
| 2026-04-25 00:08 | -26.45376 | 153.39174 | 26276 ft | 432 kts | 162° |
| 2026-04-25 00:08 | -26.48246 | 153.40173 | 26707 ft | 431 kts | 162° |
| 2026-04-25 00:08 | -26.51107 | 153.41169 | 27118 ft | 431 kts | 162° |
| 2026-04-25 00:08 | -26.53972 | 153.42167 | 27524 ft | 431 kts | 162° |
| 2026-04-25 00:09 | -26.56831 | 153.43161 | 27939 ft | 431 kts | 162° |
| 2026-04-25 00:09 | -26.59693 | 153.44159 | 28351 ft | 431 kts | 162° |
| 2026-04-25 00:09 | -26.62551 | 153.45158 | 28779 ft | 430 kts | 162° |
| 2026-04-25 00:09 | -26.65402 | 153.46156 | 29226 ft | 429 kts | 162° |
| 2026-04-25 00:10 | -26.68252 | 153.47153 | 29666 ft | 429 kts | 162° |
| 2026-04-25 00:10 | -26.71125 | 153.48023 | 30103 ft | 428 kts | 169° |
| 2026-04-25 00:10 | -26.74087 | 153.48374 | 30518 ft | 429 kts | 178° |
| 2026-04-25 00:10 | -26.77060 | 153.48166 | 30907 ft | 429 kts | 188° |
| 2026-04-25 00:11 | -26.79983 | 153.47531 | 31325 ft | 427 kts | 191° |
| 2026-04-25 00:11 | -26.82890 | 153.46874 | 31767 ft | 425 kts | 191° |
| 2026-04-25 00:11 | -26.85782 | 153.46227 | 32215 ft | 423 kts | 191° |
| 2026-04-25 00:11 | -26.88659 | 153.45584 | 32682 ft | 420 kts | 191° |
| 2026-04-25 00:12 | -26.91512 | 153.44944 | 33146 ft | 417 kts | 191° |
| 2026-04-25 00:12 | -26.94351 | 153.44306 | 33599 ft | 415 kts | 191° |
| 2026-04-25 00:12 | -26.97179 | 153.43670 | 34032 ft | 414 kts | 191° |
| 2026-04-25 00:12 | -27.00001 | 153.43037 | 34420 ft | 413 kts | 191° |
| 2026-04-25 00:13 | -27.02811 | 153.42404 | 34726 ft | 412 kts | 191° |
| 2026-04-25 00:13 | -27.05621 | 153.41770 | 35016 ft | 411 kts | 191° |
| 2026-04-25 00:13 | -27.08426 | 153.41138 | 35295 ft | 411 kts | 191° |
| 2026-04-25 00:13 | -27.11231 | 153.40506 | 35572 ft | 411 kts | 191° |
| 2026-04-25 00:14 | -27.14031 | 153.39873 | 35842 ft | 411 kts | 191° |
| 2026-04-25 00:14 | -27.16831 | 153.39238 | 36109 ft | 410 kts | 191° |
| 2026-04-25 00:14 | -27.19629 | 153.38602 | 36287 ft | 411 kts | 191° |
| 2026-04-25 00:14 | -27.22445 | 153.37961 | 36342 ft | 416 kts | 191° |
| 2026-04-25 00:15 | -27.28188 | 153.36658 | 36345 ft | 425 kts | 191° |
| 2026-04-25 00:15 | -27.33997 | 153.35348 | 36347 ft | 426 kts | 192° |
| 2026-04-25 00:16 | -27.39265 | 153.33187 | 36350 ft | 427 kts | 209° |
| 2026-04-25 00:16 | -27.44358 | 153.29747 | 36348 ft | 427 kts | 210° |
| 2026-04-25 00:17 | -27.49455 | 153.26301 | 36361 ft | 427 kts | 210° |
| 2026-04-25 00:17 | -27.54555 | 153.22858 | 36365 ft | 427 kts | 209° |
| 2026-04-25 00:18 | -27.59659 | 153.19413 | 36369 ft | 427 kts | 209° |
| 2026-04-25 00:18 | -27.64760 | 153.15965 | 36374 ft | 427 kts | 209° |
| 2026-04-25 00:19 | -27.69851 | 153.12512 | 36377 ft | 427 kts | 209° |
| 2026-04-25 00:19 | -27.74943 | 153.09062 | 36376 ft | 427 kts | 209° |
| 2026-04-25 00:20 | -27.80028 | 153.05604 | 36379 ft | 426 kts | 209° |
| 2026-04-25 00:20 | -27.85036 | 153.02004 | 36378 ft | 427 kts | 212° |
| 2026-04-25 00:21 | -27.89870 | 152.98092 | 36383 ft | 427 kts | 214° |
| 2026-04-25 00:21 | -27.94669 | 152.94127 | 36382 ft | 427 kts | 213° |
| 2026-04-25 00:22 | -27.99496 | 152.90223 | 36385 ft | 427 kts | 213° |
| 2026-04-25 00:22 | -28.04354 | 152.86358 | 36387 ft | 426 kts | 212° |
| 2026-04-25 00:23 | -28.09200 | 152.82492 | 36387 ft | 426 kts | 213° |
| 2026-04-25 00:23 | -28.14040 | 152.78605 | 36389 ft | 426 kts | 213° |
| 2026-04-25 00:24 | -28.18870 | 152.74717 | 36391 ft | 426 kts | 213° |
| 2026-04-25 00:24 | -28.23698 | 152.70826 | 36397 ft | 426 kts | 213° |
| 2026-04-25 00:25 | -28.28536 | 152.66930 | 36398 ft | 426 kts | 212° |
| 2026-04-25 00:25 | -28.33372 | 152.63039 | 36403 ft | 426 kts | 212° |
| 2026-04-25 00:26 | -28.38201 | 152.59142 | 36410 ft | 426 kts | 212° |
| 2026-04-25 00:26 | -28.43032 | 152.55238 | 36418 ft | 426 kts | 212° |
| 2026-04-25 00:27 | -28.47859 | 152.51333 | 36416 ft | 426 kts | 212° |
| 2026-04-25 00:27 | -28.52681 | 152.47424 | 36416 ft | 426 kts | 212° |
| 2026-04-25 00:28 | -28.57501 | 152.43519 | 36421 ft | 425 kts | 212° |
| 2026-04-25 00:28 | -28.62314 | 152.39615 | 36419 ft | 425 kts | 212° |
| 2026-04-25 00:29 | -28.67124 | 152.35698 | 36419 ft | 425 kts | 212° |
| 2026-04-25 00:29 | -28.71928 | 152.31782 | 36419 ft | 424 kts | 212° |
| 2026-04-25 00:30 | -28.76728 | 152.27873 | 36418 ft | 424 kts | 212° |
| 2026-04-25 00:30 | -28.81523 | 152.23969 | 36419 ft | 423 kts | 212° |
| 2026-04-25 00:31 | -28.86311 | 152.20064 | 36420 ft | 423 kts | 212° |
| 2026-04-25 00:31 | -28.91087 | 152.16150 | 36420 ft | 422 kts | 212° |
| 2026-04-25 00:32 | -28.95853 | 152.12247 | 36416 ft | 422 kts | 212° |
| 2026-04-25 00:32 | -29.00618 | 152.08346 | 36413 ft | 421 kts | 212° |
| 2026-04-25 00:33 | -29.05384 | 152.04452 | 36414 ft | 420 kts | 212° |
| 2026-04-25 00:33 | -29.10129 | 152.00552 | 36415 ft | 420 kts | 212° |
| 2026-04-25 00:34 | -29.14866 | 151.96648 | 36411 ft | 419 kts | 212° |
| 2026-04-25 00:34 | -29.19597 | 151.92753 | 36413 ft | 419 kts | 212° |
| 2026-04-25 00:35 | -29.24324 | 151.88860 | 36416 ft | 418 kts | 212° |
| 2026-04-25 00:35 | -29.29045 | 151.84974 | 36411 ft | 418 kts | 212° |
| 2026-04-25 00:36 | -29.33764 | 151.81079 | 36407 ft | 418 kts | 212° |
| 2026-04-25 00:36 | -29.38473 | 151.77172 | 36410 ft | 418 kts | 212° |
| 2026-04-25 00:37 | -29.43181 | 151.73279 | 36413 ft | 417 kts | 212° |
| 2026-04-25 00:37 | -29.47886 | 151.69380 | 36417 ft | 417 kts | 212° |
| 2026-04-25 00:38 | -29.52650 | 151.65608 | 36416 ft | 414 kts | 206° |
| 2026-04-25 00:38 | -29.57664 | 151.62367 | 36414 ft | 413 kts | 206° |
| 2026-04-25 00:39 | -29.62673 | 151.59120 | 36416 ft | 413 kts | 206° |
| 2026-04-25 00:39 | -29.67677 | 151.55865 | 36413 ft | 413 kts | 206° |
| 2026-04-25 00:40 | -29.72682 | 151.52609 | 36413 ft | 413 kts | 206° |
| 2026-04-25 00:40 | -29.76869 | 151.49877 | 36415 ft | 413 kts | 206° |
| 2026-04-25 00:41 | -29.81864 | 151.46618 | 36417 ft | 413 kts | 206° |
| 2026-04-25 00:41 | -29.86860 | 151.43358 | 36416 ft | 412 kts | 206° |
| 2026-04-25 00:42 | -29.91853 | 151.40104 | 36416 ft | 412 kts | 206° |
| 2026-04-25 00:42 | -29.96844 | 151.36841 | 36415 ft | 412 kts | 206° |
| 2026-04-25 00:43 | -30.01836 | 151.33579 | 36415 ft | 412 kts | 206° |
| 2026-04-25 00:43 | -30.06823 | 151.30306 | 36419 ft | 412 kts | 206° |
| 2026-04-25 00:44 | -30.11807 | 151.27033 | 36412 ft | 412 kts | 205° |
| 2026-04-25 00:44 | -30.16799 | 151.23758 | 36417 ft | 412 kts | 205° |
| 2026-04-25 00:45 | -30.21783 | 151.20480 | 36419 ft | 412 kts | 206° |
| 2026-04-25 00:45 | -30.26767 | 151.17196 | 36420 ft | 412 kts | 206° |
| 2026-04-25 00:46 | -30.31757 | 151.13912 | 36422 ft | 412 kts | 206° |
| 2026-04-25 00:47 | -30.39233 | 151.08974 | 36423 ft | 412 kts | 206° |
| 2026-04-25 00:47 | -30.44214 | 151.05674 | 36423 ft | 413 kts | 206° |
| 2026-04-25 00:48 | -30.49202 | 151.02371 | 36421 ft | 413 kts | 206° |
| 2026-04-25 00:48 | -30.54188 | 150.99076 | 36428 ft | 413 kts | 206° |
| 2026-04-25 00:49 | -30.59176 | 150.95766 | 36425 ft | 413 kts | 206° |
| 2026-04-25 00:49 | -30.64166 | 150.92448 | 36436 ft | 413 kts | 206° |
| 2026-04-25 00:50 | -30.69150 | 150.89126 | 36432 ft | 413 kts | 206° |
| 2026-04-25 00:50 | -30.74135 | 150.85800 | 36426 ft | 413 kts | 206° |
| 2026-04-25 00:51 | -30.79125 | 150.82472 | 36433 ft | 414 kts | 206° |
| 2026-04-25 00:51 | -30.84124 | 150.79138 | 36443 ft | 414 kts | 206° |
| 2026-04-25 00:52 | -30.89118 | 150.75806 | 36443 ft | 414 kts | 206° |
| 2026-04-25 00:52 | -30.94114 | 150.72462 | 36449 ft | 414 kts | 206° |
| 2026-04-25 00:53 | -30.99114 | 150.69112 | 36455 ft | 414 kts | 206° |
| 2026-04-25 00:53 | -31.04113 | 150.65756 | 36457 ft | 415 kts | 206° |
| 2026-04-25 00:54 | -31.08799 | 150.61778 | 36454 ft | 421 kts | 217° |
| 2026-04-25 00:54 | -31.13170 | 150.57227 | 36453 ft | 421 kts | 217° |
| 2026-04-25 00:55 | -31.17553 | 150.52679 | 36451 ft | 421 kts | 217° |
| 2026-04-25 00:55 | -31.21928 | 150.48120 | 36444 ft | 421 kts | 217° |
| 2026-04-25 00:56 | -31.26300 | 150.43550 | 36439 ft | 421 kts | 217° |
| 2026-04-25 00:56 | -31.30666 | 150.38990 | 36441 ft | 421 kts | 218° |
| 2026-04-25 00:57 | -31.35039 | 150.34428 | 36444 ft | 421 kts | 218° |
| 2026-04-25 00:57 | -31.39411 | 150.29850 | 36441 ft | 422 kts | 218° |
| 2026-04-25 00:58 | -31.43779 | 150.25265 | 36444 ft | 422 kts | 218° |
| 2026-04-25 00:58 | -31.48144 | 150.20675 | 36444 ft | 422 kts | 218° |
| 2026-04-25 00:59 | -31.52515 | 150.16078 | 36443 ft | 422 kts | 218° |
| 2026-04-25 00:59 | -31.56891 | 150.11475 | 36450 ft | 423 kts | 218° |
| 2026-04-25 01:00 | -31.61265 | 150.06865 | 36451 ft | 423 kts | 218° |
| 2026-04-25 01:00 | -31.65639 | 150.02242 | 36448 ft | 423 kts | 218° |
| 2026-04-25 01:01 | -31.70010 | 149.97617 | 36440 ft | 423 kts | 218° |
| 2026-04-25 01:01 | -31.74391 | 149.92988 | 36444 ft | 424 kts | 218° |
| 2026-04-25 01:02 | -31.78769 | 149.88352 | 36447 ft | 424 kts | 218° |
| 2026-04-25 01:02 | -31.83146 | 149.83699 | 36442 ft | 424 kts | 218° |
| 2026-04-25 01:03 | -31.87432 | 149.78915 | 36443 ft | 426 kts | 221° |
| 2026-04-25 01:03 | -31.91540 | 149.73879 | 36452 ft | 427 kts | 223° |
| 2026-04-25 01:04 | -31.95623 | 149.68802 | 36452 ft | 427 kts | 223° |
| 2026-04-25 01:04 | -31.99750 | 149.63766 | 36449 ft | 427 kts | 222° |
| 2026-04-25 01:05 | -32.03905 | 149.58750 | 36450 ft | 428 kts | 222° |
| 2026-04-25 01:05 | -32.08059 | 149.53728 | 36453 ft | 428 kts | 222° |
| 2026-04-25 01:06 | -32.12207 | 149.48687 | 36458 ft | 428 kts | 223° |
| 2026-04-25 01:06 | -32.16344 | 149.43629 | 36455 ft | 428 kts | 223° |
| 2026-04-25 01:07 | -32.20491 | 149.38578 | 36457 ft | 429 kts | 223° |
| 2026-04-25 01:07 | -32.24643 | 149.33514 | 36456 ft | 429 kts | 223° |
| 2026-04-25 01:08 | -32.28788 | 149.28448 | 36454 ft | 429 kts | 223° |
| 2026-04-25 01:08 | -32.32928 | 149.23378 | 36455 ft | 429 kts | 223° |
| 2026-04-25 01:09 | -32.37067 | 149.18296 | 36454 ft | 429 kts | 223° |
| 2026-04-25 01:09 | -32.41211 | 149.13211 | 36453 ft | 429 kts | 223° |
| 2026-04-25 01:10 | -32.45352 | 149.08123 | 36450 ft | 429 kts | 223° |
| 2026-04-25 01:10 | -32.49486 | 149.03028 | 36449 ft | 429 kts | 223° |
| 2026-04-25 01:11 | -32.53620 | 148.97926 | 36450 ft | 429 kts | 223° |
| 2026-04-25 01:11 | -32.57759 | 148.92821 | 36452 ft | 430 kts | 223° |
| 2026-04-25 01:12 | -32.61900 | 148.87714 | 36452 ft | 430 kts | 223° |
| 2026-04-25 01:12 | -32.66037 | 148.82589 | 36453 ft | 430 kts | 223° |
| 2026-04-25 01:13 | -32.70170 | 148.77466 | 36455 ft | 430 kts | 224° |
| 2026-04-25 01:13 | -32.74305 | 148.72327 | 36455 ft | 430 kts | 224° |
| 2026-04-25 01:14 | -32.78437 | 148.67178 | 36458 ft | 431 kts | 224° |
| 2026-04-25 01:14 | -32.82574 | 148.62022 | 36459 ft | 431 kts | 224° |
| 2026-04-25 01:15 | -32.86714 | 148.56862 | 36462 ft | 431 kts | 224° |
| 2026-04-25 01:15 | -32.90856 | 148.51698 | 36458 ft | 431 kts | 224° |
| 2026-04-25 01:16 | -32.94985 | 148.46528 | 36458 ft | 431 kts | 224° |
| 2026-04-25 01:16 | -32.99117 | 148.41348 | 36452 ft | 431 kts | 224° |
| 2026-04-25 01:17 | -33.03251 | 148.36170 | 36453 ft | 431 kts | 224° |
| 2026-04-25 01:17 | -33.07378 | 148.30984 | 36452 ft | 431 kts | 224° |
| 2026-04-25 01:18 | -33.11505 | 148.25781 | 36447 ft | 432 kts | 224° |
| 2026-04-25 01:18 | -33.16001 | 148.21075 | 36445 ft | 430 kts | 216° |
| 2026-04-25 01:19 | -33.20739 | 148.16720 | 36444 ft | 430 kts | 216° |
| 2026-04-25 01:19 | -33.25479 | 148.12352 | 36443 ft | 431 kts | 216° |
| 2026-04-25 01:20 | -33.30219 | 148.07970 | 36451 ft | 431 kts | 216° |
| 2026-04-25 01:20 | -33.34189 | 148.04289 | 36451 ft | 431 kts | 216° |
| 2026-04-25 01:21 | -33.38933 | 147.99884 | 36448 ft | 432 kts | 216° |
| 2026-04-25 01:21 | -33.43679 | 147.95481 | 36450 ft | 432 kts | 216° |
| 2026-04-25 01:22 | -33.48434 | 147.91065 | 36456 ft | 432 kts | 216° |
| 2026-04-25 01:22 | -33.53186 | 147.86646 | 36458 ft | 433 kts | 217° |
| 2026-04-25 01:23 | -33.57933 | 147.82215 | 36461 ft | 433 kts | 217° |
| 2026-04-25 01:23 | -33.62687 | 147.77778 | 36460 ft | 433 kts | 217° |
| 2026-04-25 01:24 | -33.67440 | 147.73334 | 36461 ft | 433 kts | 217° |
| 2026-04-25 01:24 | -33.72189 | 147.68889 | 36462 ft | 433 kts | 217° |
| 2026-04-25 01:25 | -33.76940 | 147.64439 | 36461 ft | 433 kts | 217° |
| 2026-04-25 01:25 | -33.81688 | 147.59979 | 36461 ft | 433 kts | 217° |
| 2026-04-25 01:26 | -33.86432 | 147.55512 | 36459 ft | 433 kts | 217° |
| 2026-04-25 01:26 | -33.91179 | 147.51043 | 36462 ft | 433 kts | 217° |
| 2026-04-25 01:27 | -33.95927 | 147.46569 | 36462 ft | 433 kts | 217° |
| 2026-04-25 01:27 | -34.00669 | 147.42092 | 36462 ft | 433 kts | 217° |
| 2026-04-25 01:28 | -34.07785 | 147.35362 | 36459 ft | 433 kts | 217° |
| 2026-04-25 01:28 | -34.12531 | 147.30877 | 36461 ft | 433 kts | 217° |
| 2026-04-25 01:29 | -34.17270 | 147.26378 | 36459 ft | 433 kts | 217° |
| 2026-04-25 01:29 | -34.22000 | 147.21872 | 36459 ft | 433 kts | 217° |
| 2026-04-25 01:30 | -34.26737 | 147.17362 | 36454 ft | 433 kts | 217° |
| 2026-04-25 01:30 | -34.31469 | 147.12860 | 36455 ft | 433 kts | 217° |
| 2026-04-25 01:31 | -34.36202 | 147.08341 | 36456 ft | 433 kts | 218° |
| 2026-04-25 01:31 | -34.40961 | 147.03780 | 36455 ft | 433 kts | 218° |
| 2026-04-25 01:32 | -34.45688 | 146.99250 | 36452 ft | 433 kts | 218° |
| 2026-04-25 01:32 | -34.50413 | 146.94717 | 36450 ft | 433 kts | 218° |
| 2026-04-25 01:33 | -34.55137 | 146.90178 | 36444 ft | 433 kts | 218° |
| 2026-04-25 01:33 | -34.59855 | 146.85634 | 36446 ft | 433 kts | 218° |
| 2026-04-25 01:34 | -34.64578 | 146.81091 | 36445 ft | 433 kts | 218° |
| 2026-04-25 01:34 | -34.69295 | 146.76538 | 36445 ft | 433 kts | 218° |
| 2026-04-25 01:35 | -34.74011 | 146.71971 | 36444 ft | 434 kts | 218° |
| 2026-04-25 01:35 | -34.78733 | 146.67404 | 36442 ft | 434 kts | 218° |
| 2026-04-25 01:36 | -34.83456 | 146.62833 | 36440 ft | 434 kts | 218° |
| 2026-04-25 01:36 | -34.88184 | 146.58252 | 36441 ft | 434 kts | 218° |
| 2026-04-25 01:37 | -34.92904 | 146.53660 | 36440 ft | 434 kts | 218° |
| 2026-04-25 01:37 | -34.97622 | 146.49068 | 36437 ft | 434 kts | 218° |
| 2026-04-25 01:38 | -35.02332 | 146.44469 | 36437 ft | 434 kts | 218° |
| 2026-04-25 01:38 | -35.07048 | 146.39860 | 36435 ft | 434 kts | 218° |
| 2026-04-25 01:39 | -35.11769 | 146.35245 | 36434 ft | 435 kts | 219° |
| 2026-04-25 01:39 | -35.16491 | 146.30620 | 36441 ft | 435 kts | 219° |
| 2026-04-25 01:40 | -35.21217 | 146.25988 | 36434 ft | 435 kts | 219° |
| 2026-04-25 01:40 | -35.25935 | 146.21353 | 36436 ft | 435 kts | 219° |
| 2026-04-25 01:41 | -35.30656 | 146.16712 | 36431 ft | 435 kts | 219° |
| 2026-04-25 01:41 | -35.35378 | 146.12055 | 36436 ft | 436 kts | 219° |
| 2026-04-25 01:42 | -35.40093 | 146.07392 | 36435 ft | 436 kts | 219° |
| 2026-04-25 01:42 | -35.44808 | 146.02721 | 36428 ft | 436 kts | 219° |
| 2026-04-25 01:43 | -35.49529 | 145.98052 | 36429 ft | 436 kts | 219° |
| 2026-04-25 01:43 | -35.54246 | 145.93378 | 36426 ft | 436 kts | 219° |
| 2026-04-25 01:44 | -35.58961 | 145.88690 | 36428 ft | 436 kts | 219° |
| 2026-04-25 01:44 | -35.63677 | 145.84003 | 36426 ft | 436 kts | 219° |
| 2026-04-25 01:45 | -35.68394 | 145.79301 | 36423 ft | 437 kts | 219° |
| 2026-04-25 01:45 | -35.73114 | 145.74594 | 36421 ft | 437 kts | 219° |
| 2026-04-25 01:46 | -35.77832 | 145.69881 | 36422 ft | 437 kts | 220° |
| 2026-04-25 01:46 | -35.82548 | 145.65157 | 36421 ft | 437 kts | 220° |
| 2026-04-25 01:47 | -35.87272 | 145.60417 | 36423 ft | 437 kts | 220° |
| 2026-04-25 01:47 | -35.91992 | 145.55680 | 36421 ft | 438 kts | 220° |
| 2026-04-25 01:48 | -35.96716 | 145.50936 | 36422 ft | 438 kts | 220° |
| 2026-04-25 01:48 | -36.01437 | 145.46182 | 36284 ft | 438 kts | 220° |
| 2026-04-25 01:49 | -36.03793 | 145.43804 | 36038 ft | 438 kts | 220° |
| 2026-04-25 01:49 | -36.06155 | 145.41415 | 35788 ft | 439 kts | 220° |
| 2026-04-25 01:49 | -36.08517 | 145.39026 | 35546 ft | 440 kts | 220° |
| 2026-04-25 01:49 | -36.10884 | 145.36631 | 35307 ft | 441 kts | 220° |
| 2026-04-25 01:50 | -36.13259 | 145.34228 | 35057 ft | 442 kts | 220° |
| 2026-04-25 01:50 | -36.15646 | 145.31810 | 34801 ft | 443 kts | 220° |
| 2026-04-25 01:50 | -36.18039 | 145.29383 | 33912 ft | 448 kts | 220° |
| 2026-04-25 01:50 | -36.20449 | 145.26933 | 33037 ft | 450 kts | 220° |
| 2026-04-25 01:51 | -36.22870 | 145.24474 | 32404 ft | 447 kts | 220° |
| 2026-04-25 01:51 | -36.25258 | 145.22051 | 31865 ft | 442 kts | 220° |
| 2026-04-25 01:51 | -36.27625 | 145.19649 | 31314 ft | 439 kts | 220° |
| 2026-04-25 01:51 | -36.29981 | 145.17257 | 30762 ft | 436 kts | 221° |
| 2026-04-25 01:52 | -36.32319 | 145.14877 | 30163 ft | 434 kts | 221° |
| 2026-04-25 01:52 | -36.34635 | 145.12512 | 29605 ft | 429 kts | 221° |
| 2026-04-25 01:52 | -36.36928 | 145.10165 | 29056 ft | 424 kts | 221° |
| 2026-04-25 01:52 | -36.39190 | 145.07851 | 28513 ft | 420 kts | 221° |
| 2026-04-25 01:53 | -36.41439 | 145.05551 | 27983 ft | 417 kts | 221° |
| 2026-04-25 01:53 | -36.43670 | 145.03270 | 27444 ft | 413 kts | 221° |
| 2026-04-25 01:53 | -36.45881 | 145.01007 | 26770 ft | 413 kts | 221° |
| 2026-04-25 01:53 | -36.48118 | 144.98714 | 26008 ft | 417 kts | 221° |
| 2026-04-25 01:54 | -36.50338 | 144.96436 | 25513 ft | 412 kts | 221° |
| 2026-04-25 01:54 | -36.52543 | 144.94174 | 25015 ft | 409 kts | 221° |
| 2026-04-25 01:54 | -36.54729 | 144.91931 | 24516 ft | 406 kts | 221° |
| 2026-04-25 01:54 | -36.56896 | 144.89707 | 24050 ft | 403 kts | 221° |
| 2026-04-25 01:55 | -36.59051 | 144.87495 | 23529 ft | 400 kts | 221° |
| 2026-04-25 01:55 | -36.61186 | 144.85300 | 23077 ft | 395 kts | 221° |
| 2026-04-25 01:55 | -36.63293 | 144.83130 | 22630 ft | 392 kts | 221° |
| 2026-04-25 01:55 | -36.65387 | 144.80976 | 22168 ft | 389 kts | 221° |
| 2026-04-25 01:56 | -36.67470 | 144.78832 | 21707 ft | 387 kts | 221° |
| 2026-04-25 01:56 | -36.69533 | 144.76703 | 21221 ft | 385 kts | 221° |
| 2026-04-25 01:56 | -36.71589 | 144.74574 | 20746 ft | 383 kts | 221° |
| 2026-04-25 01:56 | -36.73628 | 144.72457 | 20256 ft | 381 kts | 221° |
| 2026-04-25 01:57 | -36.77741 | 144.68327 | 19245 ft | 380 kts | 214° |
| 2026-04-25 01:57 | -36.80118 | 144.66884 | 18732 ft | 382 kts | 200° |
| 2026-04-25 01:57 | -36.82715 | 144.66174 | 18165 ft | 383 kts | 187° |
| 2026-04-25 01:58 | -36.84475 | 144.66121 | 17821 ft | 383 kts | 178° |
| 2026-04-25 01:58 | -36.87994 | 144.66776 | 17116 ft | 381 kts | 172° |
| 2026-04-25 01:58 | -36.89718 | 144.67156 | 16768 ft | 379 kts | 172° |
| 2026-04-25 01:58 | -36.92308 | 144.67728 | 16250 ft | 377 kts | 172° |
| 2026-04-25 01:59 | -36.94881 | 144.68297 | 15727 ft | 375 kts | 171° |
| 2026-04-25 01:59 | -36.97449 | 144.68866 | 15215 ft | 374 kts | 171° |
| 2026-04-25 01:59 | -37.00007 | 144.69430 | 14680 ft | 373 kts | 171° |
| 2026-04-25 01:59 | -37.02561 | 144.69990 | 14160 ft | 372 kts | 171° |
| 2026-04-25 02:00 | -37.05102 | 144.70550 | 13596 ft | 370 kts | 171° |
| 2026-04-25 02:00 | -37.07630 | 144.71112 | 13076 ft | 368 kts | 171° |
| 2026-04-25 02:00 | -37.10149 | 144.71675 | 12555 ft | 366 kts | 172° |
| 2026-04-25 02:00 | -37.12653 | 144.72235 | 12043 ft | 364 kts | 172° |
| 2026-04-25 02:01 | -37.15139 | 144.72790 | 11534 ft | 363 kts | 172° |
| 2026-04-25 02:01 | -37.17619 | 144.73347 | 11048 ft | 361 kts | 172° |
| 2026-04-25 02:01 | -37.20074 | 144.73955 | 10567 ft | 359 kts | 171° |
| 2026-04-25 02:01 | -37.22501 | 144.74604 | 10323 ft | 350 kts | 170° |
| 2026-04-25 02:02 | -37.24836 | 144.75249 | 10196 ft | 338 kts | 170° |
| 2026-04-25 02:02 | -37.27099 | 144.75876 | 10058 ft | 327 kts | 170° |
| 2026-04-25 02:02 | -37.29287 | 144.76479 | 9911 ft | 317 kts | 171° |
| 2026-04-25 02:02 | -37.31419 | 144.77058 | 9593 ft | 311 kts | 171° |
| 2026-04-25 02:03 | -37.33525 | 144.77614 | 8972 ft | 308 kts | 172° |
| 2026-04-25 02:03 | -37.35617 | 144.78056 | 8731 ft | 304 kts | 175° |
| 2026-04-25 02:03 | -37.37723 | 144.78423 | 8488 ft | 305 kts | 175° |
| 2026-04-25 02:03 | -37.39825 | 144.78765 | 8258 ft | 305 kts | 176° |
| 2026-04-25 02:04 | -37.41921 | 144.79103 | 8017 ft | 303 kts | 175° |
| 2026-04-25 02:04 | -37.44015 | 144.79446 | 7788 ft | 303 kts | 176° |
| 2026-04-25 02:04 | -37.46095 | 144.79496 | 7555 ft | 297 kts | 190° |
| 2026-04-25 02:04 | -37.48088 | 144.78938 | 7333 ft | 291 kts | 205° |
| 2026-04-25 02:05 | -37.49979 | 144.78035 | 7103 ft | 290 kts | 206° |
| 2026-04-25 02:05 | -37.51863 | 144.77137 | 6885 ft | 290 kts | 206° |
| 2026-04-25 02:05 | -37.53770 | 144.76233 | 6647 ft | 289 kts | 206° |
| 2026-04-25 02:05 | -37.55629 | 144.75353 | 6423 ft | 288 kts | 206° |
| 2026-04-25 02:06 | -37.57499 | 144.74471 | 6204 ft | 286 kts | 205° |
| 2026-04-25 02:06 | -37.59431 | 144.73823 | 6035 ft | 291 kts | 192° |
| 2026-04-25 02:06 | -37.61452 | 144.73652 | 6004 ft | 291 kts | 187° |
| 2026-04-25 02:06 | -37.63507 | 144.73510 | 5760 ft | 294 kts | 187° |
| 2026-04-25 02:07 | -37.65533 | 144.73363 | 5327 ft | 289 kts | 187° |
| 2026-04-25 02:07 | -37.67518 | 144.73216 | 5077 ft | 288 kts | 187° |
| 2026-04-25 02:07 | -37.69540 | 144.73067 | 4859 ft | 288 kts | 187° |
| 2026-04-25 02:07 | -37.71529 | 144.72940 | 4652 ft | 282 kts | 186° |
| 2026-04-25 02:08 | -37.73444 | 144.72889 | 4354 ft | 270 kts | 184° |
| 2026-04-25 02:08 | -37.75294 | 144.72875 | 4119 ft | 265 kts | 184° |
| 2026-04-25 02:08 | -37.77142 | 144.72867 | 3990 ft | 266 kts | 183° |
| 2026-04-25 02:08 | -37.78994 | 144.72862 | 3859 ft | 268 kts | 181° |
| 2026-04-25 02:09 | -37.80794 | 144.73314 | 3757 ft | 269 kts | 159° |
| 2026-04-25 02:09 | -37.82404 | 144.74579 | 3618 ft | 270 kts | 135° |
| 2026-04-25 02:09 | -37.83510 | 144.76397 | 3428 ft | 260 kts | 113° |
| 2026-04-25 02:09 | -37.84098 | 144.78516 | 3227 ft | 246 kts | 94° |
| 2026-04-25 02:10 | -37.84169 | 144.80580 | 3044 ft | 232 kts | 76° |
| 2026-04-25 02:10 | -37.83938 | 144.82589 | 2862 ft | 225 kts | 74° |
| 2026-04-25 02:10 | -37.83692 | 144.84507 | 2688 ft | 215 kts | 68° |
| 2026-04-25 02:10 | -37.82970 | 144.85987 | 2524 ft | 188 kts | 30° |
| 2026-04-25 02:11 | -37.81836 | 144.86522 | 2418 ft | 168 kts | 359° |
| 2026-04-25 02:11 | -37.80710 | 144.86361 | 2272 ft | 159 kts | 352° |
| 2026-04-25 02:11 | -37.79656 | 144.86162 | 2145 ft | 148 kts | 352° |
| 2026-04-25 02:11 | -37.78684 | 144.85983 | 2033 ft | 139 kts | 352° |
| 2026-04-25 02:12 | -37.77739 | 144.85810 | 1917 ft | 134 kts | 352° |
| 2026-04-25 02:12 | -37.76823 | 144.85641 | 1840 ft | 132 kts | 351° |
| 2026-04-25 02:12 | -37.75919 | 144.85473 | 1755 ft | 131 kts | 352° |
| 2026-04-25 02:12 | -37.75022 | 144.85306 | 1650 ft | 132 kts | 351° |
| 2026-04-25 02:13 | -37.74105 | 144.85137 | 1469 ft | 130 kts | 352° |
| 2026-04-25 02:13 | -37.73201 | 144.84973 | 1280 ft | 133 kts | 353° |
| 2026-04-25 02:13 | -37.72290 | 144.84808 | 1092 ft | 131 kts | 354° |
| 2026-04-25 02:13 | -37.71397 | 144.84647 | 918 ft | 130 kts | 356° |
| 2026-04-25 02:14 | -37.70494 | 144.84474 | 755 ft | 131 kts | 355° |
| 2026-04-25 02:14 | -37.69597 | 144.84291 | 552 ft | 130 kts | 357° |
| 2026-04-25 02:14 | -37.68715 | 144.84114 | 418 ft | 129 kts | 357° |
| 2026-04-25 02:14 | -37.67869 | 144.83965 | 361 ft | 108 kts | 352° |
| 2026-04-25 02:15 | -37.67289 | 144.83860 | 375 ft | 59 kts | 351° |
| 2026-04-25 02:15 | -37.67004 | 144.83844 | 385 ft | 34 kts | 8° |
| 2026-04-25 02:15 | -37.66827 | 144.83920 | 391 ft | 20 kts | 23° |
| 2026-04-25 02:15 | -37.66733 | 144.84014 | 389 ft | 17 kts | 69° |
| 2026-04-25 02:16 | -37.66748 | 144.84161 | 394 ft | 19 kts | 134° |
| 2026-04-25 02:16 | -37.66887 | 144.84213 | 389 ft | 23 kts | 170° |
| 2026-04-25 02:16 | -37.67062 | 144.84245 | 385 ft | 27 kts | 171° |
| 2026-04-25 02:16 | -37.67262 | 144.84284 | 381 ft | 31 kts | 169° |
| 2026-04-25 02:17 | -37.67451 | 144.84321 | 377 ft | 14 kts | 156° |
| 2026-04-25 02:17 | -37.67470 | 144.84442 | 378 ft | 15 kts | 83° |
| 2026-04-25 02:17 | -37.67453 | 144.84578 | 380 ft | 16 kts | 81° |
| 2026-04-25 02:17 | -37.67452 | 144.84675 | 381 ft | 8 kts | 124° |
| 2026-04-25 02:18 | -37.67506 | 144.84690 | 380 ft | 9 kts | 172° |
| 2026-04-25 02:18 | -37.67537 | 144.84696 | 379 ft | 2 kts | 172° |
| 2026-04-25 02:18 | -37.67540 | 144.84696 | 379 ft | 0 kts | 172° |